sensor_id;sensor_type;location;lat;lon;timestamp;temperature;humidity
43697;DHT22;29301;47.620;19.560;2022-10-19T00:01:47;10.80;98.00
43697;DHT22;29301;47.620;19.560;2022-10-19T00:04:12;10.80;97.90
43697;DHT22;29301;47.620;19.560;2022-10-19T00:06:38;10.80;97.80
43697;DHT22;29301;47.620;19.560;2022-10-19T00:09:10;10.80;97.70
43697;DHT22;29301;47.620;19.560;2022-10-19T00:11:39;10.80;97.70
43697;DHT22;29301;47.620;19.560;2022-10-19T00:14:06;10.80;97.70
43697;DHT22;29301;47.620;19.560;2022-10-19T00:16:35;10.80;97.50
43697;DHT22;29301;47.620;19.560;2022-10-19T00:19:04;10.90;97.30
43697;DHT22;29301;47.620;19.560;2022-10-19T00:21:30;10.90;96.90
43697;DHT22;29301;47.620;19.560;2022-10-19T00:23:56;11.00;96.60
43697;DHT22;29301;47.620;19.560;2022-10-19T00:26:22;10.90;96.50
43697;DHT22;29301;47.620;19.560;2022-10-19T00:28:48;10.90;96.60
43697;DHT22;29301;47.620;19.560;2022-10-19T00:31:16;10.80;96.80
43697;DHT22;29301;47.620;19.560;2022-10-19T00:33:43;10.80;97.10
43697;DHT22;29301;47.620;19.560;2022-10-19T00:38:47;10.70;97.50
43697;DHT22;29301;47.620;19.560;2022-10-19T00:41:14;10.70;97.70
43697;DHT22;29301;47.620;19.560;2022-10-19T00:44:01;10.70;97.80
43697;DHT22;29301;47.620;19.560;2022-10-19T00:46:30;10.70;98.10
43697;DHT22;29301;47.620;19.560;2022-10-19T00:49:03;10.50;98.70
43697;DHT22;29301;47.620;19.560;2022-10-19T00:51:32;10.50;99.20
43697;DHT22;29301;47.620;19.560;2022-10-19T00:54:01;10.50;99.50
43697;DHT22;29301;47.620;19.560;2022-10-19T00:56:28;10.60;99.40
43697;DHT22;29301;47.620;19.560;2022-10-19T00:58:53;10.60;99.50
43697;DHT22;29301;47.620;19.560;2022-10-19T01:01:21;10.70;99.50
43697;DHT22;29301;47.620;19.560;2022-10-19T01:03:48;10.80;99.30
43697;DHT22;29301;47.620;19.560;2022-10-19T01:06:16;10.80;98.90
43697;DHT22;29301;47.620;19.560;2022-10-19T01:08:42;10.90;98.60
43697;DHT22;29301;47.620;19.560;2022-10-19T01:13:48;10.80;98.50
43697;DHT22;29301;47.620;19.560;2022-10-19T01:21:49;10.80;98.90
43697;DHT22;29301;47.620;19.560;2022-10-19T01:24:45;10.90;98.90
43697;DHT22;29301;47.620;19.560;2022-10-19T01:33:07;10.80;98.20
43697;DHT22;29301;47.620;19.560;2022-10-19T01:43:57;10.60;99.00
43697;DHT22;29301;47.620;19.560;2022-10-19T01:49:02;10.70;99.50
43697;DHT22;29301;47.620;19.560;2022-10-19T01:51:32;10.70;99.50
43697;DHT22;29301;47.620;19.560;2022-10-19T01:54:02;10.70;99.60
43697;DHT22;29301;47.620;19.560;2022-10-19T01:56:30;10.80;99.70
43697;DHT22;29301;47.620;19.560;2022-10-19T01:58:58;10.80;99.80
43697;DHT22;29301;47.620;19.560;2022-10-19T02:01:27;10.80;99.50
43697;DHT22;29301;47.620;19.560;2022-10-19T02:03:55;10.80;99.50
43697;DHT22;29301;47.620;19.560;2022-10-19T02:06:21;10.80;99.60
43697;DHT22;29301;47.620;19.560;2022-10-19T02:08:50;10.80;99.70
43697;DHT22;29301;47.620;19.560;2022-10-19T02:11:17;10.70;99.80
43697;DHT22;29301;47.620;19.560;2022-10-19T02:13:45;10.80;99.90
43697;DHT22;29301;47.620;19.560;2022-10-19T02:16:18;10.80;99.90
43697;DHT22;29301;47.620;19.560;2022-10-19T02:18:45;10.80;99.80
43697;DHT22;29301;47.620;19.560;2022-10-19T02:21:11;10.90;99.90
43697;DHT22;29301;47.620;19.560;2022-10-19T02:23:37;10.90;99.80
43697;DHT22;29301;47.620;19.560;2022-10-19T02:26:03;11.00;99.70
43697;DHT22;29301;47.620;19.560;2022-10-19T02:28:29;11.00;99.60
43697;DHT22;29301;47.620;19.560;2022-10-19T02:30:56;11.00;99.40
43697;DHT22;29301;47.620;19.560;2022-10-19T02:33:21;11.10;99.30
43697;DHT22;29301;47.620;19.560;2022-10-19T02:35:47;11.10;99.20
43697;DHT22;29301;47.620;19.560;2022-10-19T02:38:17;11.10;99.20
43697;DHT22;29301;47.620;19.560;2022-10-19T02:40:57;11.10;99.20
43697;DHT22;29301;47.620;19.560;2022-10-19T02:43:26;11.10;99.20
43697;DHT22;29301;47.620;19.560;2022-10-19T02:46:00;11.10;99.20
43697;DHT22;29301;47.620;19.560;2022-10-19T02:48:28;11.10;99.50
43697;DHT22;29301;47.620;19.560;2022-10-19T02:50:54;11.00;99.90
43697;DHT22;29301;47.620;19.560;2022-10-19T02:53:20;10.90;99.90
43697;DHT22;29301;47.620;19.560;2022-10-19T02:55:47;11.00;99.90
43697;DHT22;29301;47.620;19.560;2022-10-19T02:58:13;11.10;99.90
43697;DHT22;29301;47.620;19.560;2022-10-19T03:00:39;11.20;99.90
43697;DHT22;29301;47.620;19.560;2022-10-19T03:03:04;11.20;99.90
43697;DHT22;29301;47.620;19.560;2022-10-19T03:05:30;11.20;99.90
43697;DHT22;29301;47.620;19.560;2022-10-19T03:07:56;11.20;99.90
43697;DHT22;29301;47.620;19.560;2022-10-19T03:10:22;11.30;99.90
43697;DHT22;29301;47.620;19.560;2022-10-19T03:12:48;11.30;99.90
43697;DHT22;29301;47.620;19.560;2022-10-19T03:15:15;11.40;99.90
43697;DHT22;29301;47.620;19.560;2022-10-19T03:17:41;11.40;99.80
43697;DHT22;29301;47.620;19.560;2022-10-19T03:20:07;11.50;99.80
43697;DHT22;29301;47.620;19.560;2022-10-19T03:22:33;11.50;99.60
43697;DHT22;29301;47.620;19.560;2022-10-19T03:24:59;11.50;99.50
43697;DHT22;29301;47.620;19.560;2022-10-19T03:27:25;11.60;99.10
43697;DHT22;29301;47.620;19.560;2022-10-19T03:29:50;11.50;99.00
43697;DHT22;29301;47.620;19.560;2022-10-19T03:32:16;11.50;99.20
43697;DHT22;29301;47.620;19.560;2022-10-19T03:34:42;11.50;99.40
43697;DHT22;29301;47.620;19.560;2022-10-19T03:37:07;11.50;99.40
43697;DHT22;29301;47.620;19.560;2022-10-19T03:39:33;11.50;99.60
43697;DHT22;29301;47.620;19.560;2022-10-19T03:41:59;11.50;99.60
43697;DHT22;29301;47.620;19.560;2022-10-19T03:44:25;11.60;99.30
43697;DHT22;29301;47.620;19.560;2022-10-19T03:46:51;11.60;98.90
43697;DHT22;29301;47.620;19.560;2022-10-19T03:49:17;11.60;98.60
43697;DHT22;29301;47.620;19.560;2022-10-19T03:51:42;11.70;98.50
43697;DHT22;29301;47.620;19.560;2022-10-19T03:54:13;11.80;98.30
43697;DHT22;29301;47.620;19.560;2022-10-19T03:56:39;11.90;97.90
43697;DHT22;29301;47.620;19.560;2022-10-19T03:59:06;11.90;97.60
43697;DHT22;29301;47.620;19.560;2022-10-19T04:01:34;12.00;97.70
43697;DHT22;29301;47.620;19.560;2022-10-19T04:04:02;12.00;97.50
43697;DHT22;29301;47.620;19.560;2022-10-19T04:06:37;12.00;97.60
43697;DHT22;29301;47.620;19.560;2022-10-19T04:09:04;12.00;98.00
43697;DHT22;29301;47.620;19.560;2022-10-19T04:11:31;11.90;98.30
43697;DHT22;29301;47.620;19.560;2022-10-19T04:13:58;11.90;98.60
43697;DHT22;29301;47.620;19.560;2022-10-19T04:16:25;11.90;98.50
43697;DHT22;29301;47.620;19.560;2022-10-19T04:18:52;11.80;98.60
43697;DHT22;29301;47.620;19.560;2022-10-19T04:21:27;11.90;98.60
43697;DHT22;29301;47.620;19.560;2022-10-19T04:24:18;11.80;98.40
43697;DHT22;29301;47.620;19.560;2022-10-19T04:26:47;11.90;98.40
43697;DHT22;29301;47.620;19.560;2022-10-19T04:29:14;11.90;98.30
43697;DHT22;29301;47.620;19.560;2022-10-19T04:31:40;11.90;98.30
43697;DHT22;29301;47.620;19.560;2022-10-19T04:34:07;11.90;98.70
43697;DHT22;29301;47.620;19.560;2022-10-19T04:36:33;11.60;99.20
43697;DHT22;29301;47.620;19.560;2022-10-19T04:38:59;11.70;99.60
43697;DHT22;29301;47.620;19.560;2022-10-19T04:41:25;11.70;99.30
43697;DHT22;29301;47.620;19.560;2022-10-19T04:43:58;11.70;99.10
43697;DHT22;29301;47.620;19.560;2022-10-19T04:46:25;11.70;98.70
43697;DHT22;29301;47.620;19.560;2022-10-19T04:48:51;11.80;98.30
43697;DHT22;29301;47.620;19.560;2022-10-19T04:51:20;11.80;98.40
43697;DHT22;29301;47.620;19.560;2022-10-19T04:53:46;11.80;98.40
43697;DHT22;29301;47.620;19.560;2022-10-19T04:56:15;11.80;98.20
43697;DHT22;29301;47.620;19.560;2022-10-19T04:58:41;11.80;98.00
43697;DHT22;29301;47.620;19.560;2022-10-19T05:01:16;11.80;97.70
43697;DHT22;29301;47.620;19.560;2022-10-19T05:03:43;11.80;97.50
43697;DHT22;29301;47.620;19.560;2022-10-19T05:06:09;11.70;97.30
43697;DHT22;29301;47.620;19.560;2022-10-19T05:08:36;11.60;97.30
43697;DHT22;29301;47.620;19.560;2022-10-19T05:11:10;11.60;97.60
43697;DHT22;29301;47.620;19.560;2022-10-19T05:13:36;11.50;97.80
43697;DHT22;29301;47.620;19.560;2022-10-19T05:16:04;11.50;97.90
43697;DHT22;29301;47.620;19.560;2022-10-19T05:18:31;11.50;98.20
43697;DHT22;29301;47.620;19.560;2022-10-19T05:21:11;11.40;98.50
43697;DHT22;29301;47.620;19.560;2022-10-19T05:23:37;11.50;98.80
43697;DHT22;29301;47.620;19.560;2022-10-19T05:26:15;11.50;98.70
43697;DHT22;29301;47.620;19.560;2022-10-19T05:28:49;11.40;98.80
43697;DHT22;29301;47.620;19.560;2022-10-19T05:31:18;11.40;99.00
43697;DHT22;29301;47.620;19.560;2022-10-19T05:33:44;11.30;99.40
43697;DHT22;29301;47.620;19.560;2022-10-19T05:36:26;11.30;99.60
43697;DHT22;29301;47.620;19.560;2022-10-19T05:38:54;11.30;99.50
43697;DHT22;29301;47.620;19.560;2022-10-19T05:41:21;11.30;99.50
43697;DHT22;29301;47.620;19.560;2022-10-19T05:43:52;11.30;99.60
43697;DHT22;29301;47.620;19.560;2022-10-19T05:46:18;11.30;99.80
43697;DHT22;29301;47.620;19.560;2022-10-19T05:48:45;11.30;99.90
43697;DHT22;29301;47.620;19.560;2022-10-19T05:51:12;11.30;99.90
43697;DHT22;29301;47.620;19.560;2022-10-19T05:53:39;11.30;99.90
43697;DHT22;29301;47.620;19.560;2022-10-19T05:56:06;11.30;99.90
43697;DHT22;29301;47.620;19.560;2022-10-19T05:58:33;11.30;99.90
43697;DHT22;29301;47.620;19.560;2022-10-19T06:01:00;11.30;99.90
43697;DHT22;29301;47.620;19.560;2022-10-19T06:03:27;11.30;99.90
43697;DHT22;29301;47.620;19.560;2022-10-19T06:05:53;11.30;99.90
43697;DHT22;29301;47.620;19.560;2022-10-19T06:08:21;11.20;99.90
43697;DHT22;29301;47.620;19.560;2022-10-19T06:10:48;11.20;99.90
43697;DHT22;29301;47.620;19.560;2022-10-19T06:13:15;11.20;99.90
43697;DHT22;29301;47.620;19.560;2022-10-19T06:15:41;11.20;99.90
43697;DHT22;29301;47.620;19.560;2022-10-19T06:18:07;11.20;99.90
43697;DHT22;29301;47.620;19.560;2022-10-19T06:20:35;11.30;99.90
43697;DHT22;29301;47.620;19.560;2022-10-19T06:23:01;11.30;99.90
43697;DHT22;29301;47.620;19.560;2022-10-19T06:25:28;11.40;99.90
43697;DHT22;29301;47.620;19.560;2022-10-19T06:27:54;11.50;99.90
43697;DHT22;29301;47.620;19.560;2022-10-19T06:30:20;11.50;99.90
43697;DHT22;29301;47.620;19.560;2022-10-19T06:32:45;11.60;99.90
43697;DHT22;29301;47.620;19.560;2022-10-19T06:35:11;11.80;99.80
43697;DHT22;29301;47.620;19.560;2022-10-19T06:37:37;11.90;99.50
43697;DHT22;29301;47.620;19.560;2022-10-19T06:40:02;12.00;99.30
43697;DHT22;29301;47.620;19.560;2022-10-19T06:42:28;12.20;99.20
43697;DHT22;29301;47.620;19.560;2022-10-19T06:44:54;12.30;98.70
43697;DHT22;29301;47.620;19.560;2022-10-19T06:47:19;12.50;97.80
43697;DHT22;29301;47.620;19.560;2022-10-19T06:49:45;12.60;97.60
43697;DHT22;29301;47.620;19.560;2022-10-19T06:52:11;12.80;97.50
43697;DHT22;29301;47.620;19.560;2022-10-19T06:54:36;13.00;97.50
43697;DHT22;29301;47.620;19.560;2022-10-19T06:57:02;13.30;96.90
43697;DHT22;29301;47.620;19.560;2022-10-19T06:59:27;13.50;96.10
43697;DHT22;29301;47.620;19.560;2022-10-19T07:01:53;13.70;95.10
43697;DHT22;29301;47.620;19.560;2022-10-19T07:04:19;13.90;94.90
43697;DHT22;29301;47.620;19.560;2022-10-19T07:06:44;14.00;94.10
43697;DHT22;29301;47.620;19.560;2022-10-19T07:09:10;14.20;93.40
43697;DHT22;29301;47.620;19.560;2022-10-19T07:11:36;14.30;92.60
43697;DHT22;29301;47.620;19.560;2022-10-19T07:14:02;14.40;92.90
43697;DHT22;29301;47.620;19.560;2022-10-19T07:16:27;14.60;92.50
43697;DHT22;29301;47.620;19.560;2022-10-19T07:18:53;14.80;92.00
43697;DHT22;29301;47.620;19.560;2022-10-19T07:21:20;15.00;91.10
43697;DHT22;29301;47.620;19.560;2022-10-19T07:23:47;15.10;90.40
43697;DHT22;29301;47.620;19.560;2022-10-19T07:26:16;15.20;90.30
43697;DHT22;29301;47.620;19.560;2022-10-19T07:28:44;15.40;89.60
43697;DHT22;29301;47.620;19.560;2022-10-19T07:31:13;15.60;88.80
43697;DHT22;29301;47.620;19.560;2022-10-19T07:33:40;15.90;87.70
43697;DHT22;29301;47.620;19.560;2022-10-19T07:36:07;16.00;85.30
43697;DHT22;29301;47.620;19.560;2022-10-19T07:38:34;16.10;84.60
43697;DHT22;29301;47.620;19.560;2022-10-19T07:41:02;16.40;83.80
43697;DHT22;29301;47.620;19.560;2022-10-19T07:43:28;16.60;83.10
43697;DHT22;29301;47.620;19.560;2022-10-19T07:46:02;16.80;82.90
43697;DHT22;29301;47.620;19.560;2022-10-19T07:48:28;16.90;81.30
43697;DHT22;29301;47.620;19.560;2022-10-19T07:50:54;16.90;80.60
43697;DHT22;29301;47.620;19.560;2022-10-19T07:53:21;16.70;80.60
43697;DHT22;29301;47.620;19.560;2022-10-19T07:55:47;16.70;81.90
43697;DHT22;29301;47.620;19.560;2022-10-19T07:58:12;16.90;82.40
43697;DHT22;29301;47.620;19.560;2022-10-19T08:00:38;17.10;81.40
43697;DHT22;29301;47.620;19.560;2022-10-19T08:03:04;17.30;79.40
43697;DHT22;29301;47.620;19.560;2022-10-19T08:05:32;17.50;78.90
43697;DHT22;29301;47.620;19.560;2022-10-19T08:07:58;17.60;78.20
43697;DHT22;29301;47.620;19.560;2022-10-19T08:10:23;17.90;77.60
43697;DHT22;29301;47.620;19.560;2022-10-19T08:12:49;18.10;76.50
43697;DHT22;29301;47.620;19.560;2022-10-19T08:15:15;18.20;73.80
43697;DHT22;29301;47.620;19.560;2022-10-19T08:17:40;18.10;73.50
43697;DHT22;29301;47.620;19.560;2022-10-19T08:20:06;18.10;74.20
43697;DHT22;29301;47.620;19.560;2022-10-19T08:22:32;18.20;73.80
43697;DHT22;29301;47.620;19.560;2022-10-19T08:24:58;18.40;73.50
43697;DHT22;29301;47.620;19.560;2022-10-19T08:27:24;18.50;72.50
43697;DHT22;29301;47.620;19.560;2022-10-19T08:29:50;18.60;71.90
43697;DHT22;29301;47.620;19.560;2022-10-19T08:32:16;18.60;71.90
43697;DHT22;29301;47.620;19.560;2022-10-19T08:34:42;18.70;71.30
43697;DHT22;29301;47.620;19.560;2022-10-19T08:37:08;18.80;71.00
43697;DHT22;29301;47.620;19.560;2022-10-19T08:39:34;19.00;70.40
43697;DHT22;29301;47.620;19.560;2022-10-19T08:42:09;19.00;71.20
43697;DHT22;29301;47.620;19.560;2022-10-19T08:50:04;19.30;70.10
43697;DHT22;29301;47.620;19.560;2022-10-19T08:52:39;19.50;70.30
43697;DHT22;29301;47.620;19.560;2022-10-19T08:55:14;19.80;69.20
43697;DHT22;29301;47.620;19.560;2022-10-19T08:57:59;20.00;68.30
43697;DHT22;29301;47.620;19.560;2022-10-19T09:03:27;20.50;67.50
43697;DHT22;29301;47.620;19.560;2022-10-19T09:06:15;20.60;66.80
43697;DHT22;29301;47.620;19.560;2022-10-19T09:08:47;20.50;66.50
43697;DHT22;29301;47.620;19.560;2022-10-19T09:11:14;20.60;66.50
43697;DHT22;29301;47.620;19.560;2022-10-19T09:13:46;20.50;65.40
43697;DHT22;29301;47.620;19.560;2022-10-19T09:16:16;20.50;65.80
43697;DHT22;29301;47.620;19.560;2022-10-19T09:18:43;20.60;66.00
43697;DHT22;29301;47.620;19.560;2022-10-19T09:26:17;20.90;64.80
43697;DHT22;29301;47.620;19.560;2022-10-19T09:29:07;20.90;64.50
43697;DHT22;29301;47.620;19.560;2022-10-19T09:31:38;20.90;64.50
43697;DHT22;29301;47.620;19.560;2022-10-19T09:34:29;21.10;64.40
43697;DHT22;29301;47.620;19.560;2022-10-19T09:36:57;21.00;63.30
43697;DHT22;29301;47.620;19.560;2022-10-19T09:39:23;21.00;63.70
43697;DHT22;29301;47.620;19.560;2022-10-19T09:44:38;21.10;63.40
43697;DHT22;29301;47.620;19.560;2022-10-19T09:47:27;21.10;63.50
43697;DHT22;29301;47.620;19.560;2022-10-19T09:50:25;21.20;63.20
43697;DHT22;29301;47.620;19.560;2022-10-19T09:53:02;20.90;63.10
43697;DHT22;29301;47.620;19.560;2022-10-19T09:55:36;21.00;63.40
43697;DHT22;29301;47.620;19.560;2022-10-19T09:58:04;21.10;63.40
43697;DHT22;29301;47.620;19.560;2022-10-19T10:00:51;21.30;63.50
43697;DHT22;29301;47.620;19.560;2022-10-19T10:03:37;21.10;63.40
43697;DHT22;29301;47.620;19.560;2022-10-19T10:06:15;21.20;63.30
43697;DHT22;29301;47.620;19.560;2022-10-19T10:08:49;21.00;63.00
43697;DHT22;29301;47.620;19.560;2022-10-19T10:11:28;21.10;62.90
43697;DHT22;29301;47.620;19.560;2022-10-19T10:13:55;21.30;62.80
43697;DHT22;29301;47.620;19.560;2022-10-19T10:16:23;21.40;62.40
43697;DHT22;29301;47.620;19.560;2022-10-19T10:19:02;21.50;61.70
43697;DHT22;29301;47.620;19.560;2022-10-19T10:21:31;21.50;61.70
43697;DHT22;29301;47.620;19.560;2022-10-19T10:24:18;21.40;61.70
43697;DHT22;29301;47.620;19.560;2022-10-19T10:26:50;21.10;62.40
43697;DHT22;29301;47.620;19.560;2022-10-19T10:29:17;20.90;63.00
43697;DHT22;29301;47.620;19.560;2022-10-19T10:31:46;21.00;63.70
43697;DHT22;29301;47.620;19.560;2022-10-19T10:34:28;21.20;63.60
43697;DHT22;29301;47.620;19.560;2022-10-19T10:36:55;21.30;62.50
43697;DHT22;29301;47.620;19.560;2022-10-19T10:39:22;21.30;62.10
43697;DHT22;29301;47.620;19.560;2022-10-19T10:41:51;21.00;62.20
43697;DHT22;29301;47.620;19.560;2022-10-19T10:44:21;20.80;62.70
43697;DHT22;29301;47.620;19.560;2022-10-19T10:46:55;20.70;63.00
43697;DHT22;29301;47.620;19.560;2022-10-19T10:49:36;20.60;63.40
43697;DHT22;29301;47.620;19.560;2022-10-19T10:52:11;20.50;63.60
43697;DHT22;29301;47.620;19.560;2022-10-19T10:54:38;20.40;64.00
43697;DHT22;29301;47.620;19.560;2022-10-19T10:57:13;20.40;64.30
43697;DHT22;29301;47.620;19.560;2022-10-19T10:59:56;20.30;64.10
43697;DHT22;29301;47.620;19.560;2022-10-19T11:08:00;19.80;65.70
43697;DHT22;29301;47.620;19.560;2022-10-19T11:10:34;19.80;66.10
43697;DHT22;29301;47.620;19.560;2022-10-19T11:13:15;19.70;66.40
43697;DHT22;29301;47.620;19.560;2022-10-19T11:18:37;19.70;66.90
43697;DHT22;29301;47.620;19.560;2022-10-19T11:21:14;19.60;66.70
43697;DHT22;29301;47.620;19.560;2022-10-19T11:24:08;19.50;66.10
43697;DHT22;29301;47.620;19.560;2022-10-19T11:32:38;19.50;64.00
43697;DHT22;29301;47.620;19.560;2022-10-19T11:35:14;19.50;64.20
43697;DHT22;29301;47.620;19.560;2022-10-19T11:38:17;19.50;64.60
43697;DHT22;29301;47.620;19.560;2022-10-19T11:41:09;19.60;64.20
43697;DHT22;29301;47.620;19.560;2022-10-19T11:58:03;20.30;61.70
43697;DHT22;29301;47.620;19.560;2022-10-19T12:00:37;20.30;61.20
43697;DHT22;29301;47.620;19.560;2022-10-19T12:14:43;20.20;60.00
43697;DHT22;29301;47.620;19.560;2022-10-19T12:17:20;20.20;59.50
43697;DHT22;29301;47.620;19.560;2022-10-19T12:19:52;20.20;59.20
43697;DHT22;29301;47.620;19.560;2022-10-19T12:22:24;20.20;59.60
43697;DHT22;29301;47.620;19.560;2022-10-19T12:24:52;20.20;59.70
43697;DHT22;29301;47.620;19.560;2022-10-19T12:27:32;20.10;59.30
43697;DHT22;29301;47.620;19.560;2022-10-19T12:30:06;20.20;59.20
43697;DHT22;29301;47.620;19.560;2022-10-19T12:32:38;20.20;58.70
43697;DHT22;29301;47.620;19.560;2022-10-19T12:37:53;20.30;57.90
43697;DHT22;29301;47.620;19.560;2022-10-19T12:43:40;20.30;57.90
43697;DHT22;29301;47.620;19.560;2022-10-19T12:46:20;20.20;58.20
43697;DHT22;29301;47.620;19.560;2022-10-19T12:51:53;20.10;57.80
43697;DHT22;29301;47.620;19.560;2022-10-19T12:54:24;20.00;57.90
43697;DHT22;29301;47.620;19.560;2022-10-19T12:56:52;20.00;57.90
43697;DHT22;29301;47.620;19.560;2022-10-19T13:01:56;20.00;57.40
43697;DHT22;29301;47.620;19.560;2022-10-19T13:04:30;19.90;57.10
43697;DHT22;29301;47.620;19.560;2022-10-19T13:26:35;19.70;56.80
43697;DHT22;29301;47.620;19.560;2022-10-19T13:28:51;19.60;56.70
43697;DHT22;29301;47.620;19.560;2022-10-19T13:31:28;19.60;56.40
43697;DHT22;29301;47.620;19.560;2022-10-19T13:33:55;19.60;56.00
43697;DHT22;29301;47.620;19.560;2022-10-19T13:36:23;19.70;55.20
43697;DHT22;29301;47.620;19.560;2022-10-19T13:41:48;19.70;54.60
43697;DHT22;29301;47.620;19.560;2022-10-19T13:44:20;19.70;54.10
43697;DHT22;29301;47.620;19.560;2022-10-19T13:52:59;19.50;54.70
43697;DHT22;29301;47.620;19.560;2022-10-19T13:58:25;19.50;56.60
43697;DHT22;29301;47.620;19.560;2022-10-19T14:03:57;19.40;57.80
43697;DHT22;29301;47.620;19.560;2022-10-19T14:11:58;19.20;59.20
43697;DHT22;29301;47.620;19.560;2022-10-19T14:14:38;19.20;59.20
43697;DHT22;29301;47.620;19.560;2022-10-19T14:17:14;19.10;59.00
43697;DHT22;29301;47.620;19.560;2022-10-19T14:19:44;19.00;59.10
43697;DHT22;29301;47.620;19.560;2022-10-19T14:22:39;19.00;59.40
43697;DHT22;29301;47.620;19.560;2022-10-19T14:25:25;19.00;59.40
43697;DHT22;29301;47.620;19.560;2022-10-19T14:28:00;18.90;59.40
43697;DHT22;29301;47.620;19.560;2022-10-19T14:30:34;19.00;59.70
43697;DHT22;29301;47.620;19.560;2022-10-19T14:33:06;18.90;59.30
43697;DHT22;29301;47.620;19.560;2022-10-19T14:35:35;18.80;58.90
43697;DHT22;29301;47.620;19.560;2022-10-19T14:38:03;18.70;58.60
43697;DHT22;29301;47.620;19.560;2022-10-19T14:40:38;18.70;58.60
43697;DHT22;29301;47.620;19.560;2022-10-19T14:48:34;18.50;58.80
43697;DHT22;29301;47.620;19.560;2022-10-19T14:51:01;18.50;58.60
43697;DHT22;29301;47.620;19.560;2022-10-19T14:56:22;18.40;59.00
43697;DHT22;29301;47.620;19.560;2022-10-19T14:58:54;18.40;59.10
43697;DHT22;29301;47.620;19.560;2022-10-19T15:01:21;18.40;59.30
43697;DHT22;29301;47.620;19.560;2022-10-19T15:03:47;18.40;59.50
43697;DHT22;29301;47.620;19.560;2022-10-19T15:06:23;18.30;59.20
43697;DHT22;29301;47.620;19.560;2022-10-19T15:09:04;18.30;59.00
43697;DHT22;29301;47.620;19.560;2022-10-19T15:11:38;18.30;59.20
43697;DHT22;29301;47.620;19.560;2022-10-19T15:14:25;18.20;59.40
43697;DHT22;29301;47.620;19.560;2022-10-19T15:16:55;18.20;59.50
43697;DHT22;29301;47.620;19.560;2022-10-19T15:19:27;18.20;59.50
43697;DHT22;29301;47.620;19.560;2022-10-19T15:27:27;18.00;59.80
43697;DHT22;29301;47.620;19.560;2022-10-19T15:32:29;17.90;59.70
43697;DHT22;29301;47.620;19.560;2022-10-19T15:34:57;17.70;59.60
43697;DHT22;29301;47.620;19.560;2022-10-19T15:37:23;17.60;59.80
43697;DHT22;29301;47.620;19.560;2022-10-19T15:39:50;17.50;60.00
43697;DHT22;29301;47.620;19.560;2022-10-19T15:44:56;17.40;60.30
43697;DHT22;29301;47.620;19.560;2022-10-19T15:47:23;17.30;60.40
43697;DHT22;29301;47.620;19.560;2022-10-19T15:52:25;17.10;60.60
43697;DHT22;29301;47.620;19.560;2022-10-19T15:54:53;17.10;60.80
43697;DHT22;29301;47.620;19.560;2022-10-19T15:57:33;17.00;60.90
43697;DHT22;29301;47.620;19.560;2022-10-19T16:02:32;16.80;61.20
43697;DHT22;29301;47.620;19.560;2022-10-19T16:04:58;16.80;61.50
43697;DHT22;29301;47.620;19.560;2022-10-19T16:07:29;16.70;61.50
43697;DHT22;29301;47.620;19.560;2022-10-19T16:09:56;16.70;61.70
43697;DHT22;29301;47.620;19.560;2022-10-19T16:12:23;16.60;61.80
43697;DHT22;29301;47.620;19.560;2022-10-19T16:14:51;16.60;62.00
43697;DHT22;29301;47.620;19.560;2022-10-19T16:17:17;16.60;62.10
43697;DHT22;29301;47.620;19.560;2022-10-19T16:19:43;16.50;62.20
43697;DHT22;29301;47.620;19.560;2022-10-19T16:22:10;16.50;62.40
43697;DHT22;29301;47.620;19.560;2022-10-19T16:24:36;16.40;62.50
43697;DHT22;29301;47.620;19.560;2022-10-19T16:27:02;16.20;62.70
43697;DHT22;29301;47.620;19.560;2022-10-19T16:29:28;16.20;63.00
43697;DHT22;29301;47.620;19.560;2022-10-19T16:31:53;16.10;63.20
43697;DHT22;29301;47.620;19.560;2022-10-19T16:34:19;16.10;63.30
43697;DHT22;29301;47.620;19.560;2022-10-19T16:36:45;16.00;63.30
43697;DHT22;29301;47.620;19.560;2022-10-19T16:39:10;15.90;63.20
43697;DHT22;29301;47.620;19.560;2022-10-19T16:41:36;15.90;63.10
43697;DHT22;29301;47.620;19.560;2022-10-19T16:44:02;15.80;63.30
43697;DHT22;29301;47.620;19.560;2022-10-19T16:46:27;15.70;63.10
43697;DHT22;29301;47.620;19.560;2022-10-19T16:48:53;15.60;63.10
43697;DHT22;29301;47.620;19.560;2022-10-19T16:53:52;15.60;63.50
43697;DHT22;29301;47.620;19.560;2022-10-19T16:56:18;15.50;63.60
43697;DHT22;29301;47.620;19.560;2022-10-19T16:58:44;15.60;63.70
43697;DHT22;29301;47.620;19.560;2022-10-19T17:01:13;15.60;64.00
43697;DHT22;29301;47.620;19.560;2022-10-19T17:03:40;15.60;64.20
43697;DHT22;29301;47.620;19.560;2022-10-19T17:06:07;15.50;64.10
43697;DHT22;29301;47.620;19.560;2022-10-19T17:08:33;15.50;64.20
43697;DHT22;29301;47.620;19.560;2022-10-19T17:13:34;15.50;64.20
43697;DHT22;29301;47.620;19.560;2022-10-19T17:16:04;15.40;64.20
43697;DHT22;29301;47.620;19.560;2022-10-19T17:18:30;15.30;64.30
43697;DHT22;29301;47.620;19.560;2022-10-19T17:21:01;15.30;64.40
43697;DHT22;29301;47.620;19.560;2022-10-19T17:23:27;15.20;64.70
43697;DHT22;29301;47.620;19.560;2022-10-19T17:25:53;15.00;65.00
43697;DHT22;29301;47.620;19.560;2022-10-19T17:28:18;14.90;65.20
43697;DHT22;29301;47.620;19.560;2022-10-19T17:30:44;14.80;65.50
43697;DHT22;29301;47.620;19.560;2022-10-19T17:33:11;14.70;65.70
43697;DHT22;29301;47.620;19.560;2022-10-19T17:35:37;14.70;65.70
43697;DHT22;29301;47.620;19.560;2022-10-19T17:38:03;14.70;66.00
43697;DHT22;29301;47.620;19.560;2022-10-19T17:40:28;14.60;65.50
43697;DHT22;29301;47.620;19.560;2022-10-19T17:42:54;14.60;65.50
43697;DHT22;29301;47.620;19.560;2022-10-19T17:45:20;14.50;65.60
43697;DHT22;29301;47.620;19.560;2022-10-19T17:47:45;14.40;64.80
43697;DHT22;29301;47.620;19.560;2022-10-19T17:50:11;14.40;64.40
43697;DHT22;29301;47.620;19.560;2022-10-19T17:52:37;14.30;64.00
43697;DHT22;29301;47.620;19.560;2022-10-19T17:55:02;14.40;63.80
43697;DHT22;29301;47.620;19.560;2022-10-19T17:57:28;14.40;63.60
43697;DHT22;29301;47.620;19.560;2022-10-19T17:59:54;14.50;63.40
43697;DHT22;29301;47.620;19.560;2022-10-19T18:02:20;14.40;63.30
43697;DHT22;29301;47.620;19.560;2022-10-19T18:04:45;14.40;63.20
43697;DHT22;29301;47.620;19.560;2022-10-19T18:07:11;14.40;63.40
43697;DHT22;29301;47.620;19.560;2022-10-19T18:09:37;14.30;63.60
43697;DHT22;29301;47.620;19.560;2022-10-19T18:12:02;14.20;62.90
43697;DHT22;29301;47.620;19.560;2022-10-19T18:14:28;14.20;62.70